createdAt,value
2022-08-18T00:01:16.051Z,24.20
2022-08-18T00:03:56.366Z,24.20
2022-08-18T00:06:29.572Z,24.20
2022-08-18T00:08:59.794Z,24.20
2022-08-18T00:11:40.416Z,24.20
2022-08-18T00:14:12.227Z,24.10
2022-08-18T00:16:50.736Z,24.10
2022-08-18T00:19:20.461Z,24.10
2022-08-18T00:22:09.166Z,24.10
2022-08-18T00:24:47.825Z,24.10
2022-08-18T00:27:23.464Z,24.10
2022-08-18T00:29:52.763Z,24.10
2022-08-18T00:32:28.957Z,24.10
2022-08-18T00:34:58.976Z,24.10
2022-08-18T00:37:27.164Z,24.10
2022-08-18T00:39:55.608Z,24.00
2022-08-18T00:42:30.631Z,24.00
2022-08-18T00:45:02.569Z,24.00
2022-08-18T00:47:41.728Z,24.00
2022-08-18T00:50:15.924Z,24.00
2022-08-18T00:52:54.905Z,23.90
2022-08-18T00:55:24.832Z,23.90
2022-08-18T00:58:01.287Z,23.90
2022-08-18T01:00:29.736Z,23.90
2022-08-18T01:03:02.358Z,23.90
2022-08-18T01:05:40.805Z,23.80
2022-08-18T01:08:14.369Z,23.90
2022-08-18T01:10:43.353Z,23.80
2022-08-18T01:13:11.962Z,23.80
2022-08-18T01:15:40.674Z,23.80
2022-08-18T01:18:30.806Z,23.80
2022-08-18T01:21:42.284Z,23.70
2022-08-18T01:24:15.486Z,23.70
2022-08-18T01:26:50.340Z,23.70
2022-08-18T01:29:20.548Z,23.70
2022-08-18T01:31:56.043Z,23.60
2022-08-18T01:34:27.469Z,23.60
2022-08-18T01:36:56.492Z,23.60
2022-08-18T01:41:22.245Z,23.60
2022-08-18T01:42:17.896Z,23.60
2022-08-18T01:44:47.775Z,23.60
2022-08-18T01:47:17.137Z,23.60
2022-08-18T01:49:46.076Z,23.20
2022-08-18T01:52:19.496Z,23.50
2022-08-18T01:54:49.700Z,23.50
2022-08-18T01:57:19.673Z,23.50
2022-08-18T01:59:48.262Z,23.50
2022-08-18T02:02:24.417Z,23.50
2022-08-18T02:04:54.610Z,23.40
2022-08-18T02:07:22.940Z,23.50
2022-08-18T02:10:02.855Z,23.40
2022-08-18T02:12:31.137Z,23.40
2022-08-18T02:14:59.370Z,23.40
2022-08-18T02:17:27.758Z,23.40
2022-08-18T02:19:56.608Z,23.40
2022-08-18T02:22:24.889Z,23.30
2022-08-18T02:24:53.174Z,23.30
2022-08-18T02:27:22.753Z,23.30
2022-08-18T02:29:50.994Z,23.30
2022-08-18T02:32:19.256Z,23.30
2022-08-18T02:34:47.604Z,23.20
2022-08-18T02:37:15.901Z,23.20
2022-08-18T02:39:44.342Z,23.10
2022-08-18T02:42:14.787Z,23.10
2022-08-18T02:44:44.665Z,23.20
2022-08-18T02:47:13.203Z,23.10
2022-08-18T02:49:41.761Z,23.10
2022-08-18T02:52:10.809Z,23.20
2022-08-18T02:54:39.195Z,23.10
2022-08-18T02:57:09.231Z,23.20
2022-08-18T02:59:38.453Z,23.10
2022-08-18T03:02:10.544Z,23.20
2022-08-18T03:04:39.097Z,23.10
2022-08-18T03:07:09.247Z,23.10
2022-08-18T03:09:37.785Z,23.20
2022-08-18T03:12:07.289Z,23.20
2022-08-18T03:14:36.437Z,23.20
2022-08-18T03:17:06.833Z,23.20
2022-08-18T03:19:36.569Z,23.20
2022-08-18T03:22:24.305Z,23.20
2022-08-18T03:24:56.584Z,23.20
2022-08-18T03:27:24.952Z,23.30
2022-08-18T03:29:53.528Z,23.20
2022-08-18T03:32:22.087Z,23.20
2022-08-18T03:34:51.868Z,23.30
2022-08-18T03:37:20.732Z,23.30
2022-08-18T03:39:51.818Z,23.20
2022-08-18T03:42:20.217Z,23.30
2022-08-18T03:44:48.458Z,23.30
2022-08-18T03:47:18.146Z,23.20
2022-08-18T03:49:46.980Z,23.20
2022-08-18T03:52:16.717Z,23.30
2022-08-18T03:54:44.977Z,23.20
2022-08-18T03:57:14.074Z,23.20
2022-08-18T03:59:43.627Z,23.30
2022-08-18T04:02:13.111Z,23.30
2022-08-18T04:04:43.146Z,23.30
2022-08-18T04:07:17.294Z,23.30
2022-08-18T04:09:47.462Z,23.30
2022-08-18T04:12:17.648Z,23.30
2022-08-18T04:14:49.442Z,23.30
2022-08-18T04:17:25.134Z,23.30
2022-08-18T04:19:54.959Z,23.30
2022-08-18T04:22:24.911Z,23.30
2022-08-18T04:24:55.602Z,23.30
2022-08-18T04:27:24.830Z,23.30
2022-08-18T04:29:53.131Z,23.30
2022-08-18T04:32:21.408Z,23.30
2022-08-18T04:34:58.569Z,23.30
2022-08-18T04:37:32.598Z,23.30
2022-08-18T04:40:09.718Z,23.30
2022-08-18T04:42:43.266Z,23.30
2022-08-18T04:45:13.393Z,23.30
2022-08-18T04:47:43.143Z,23.30
2022-08-18T04:50:15.066Z,23.30
2022-08-18T04:53:06.217Z,23.30
2022-08-18T04:55:36.273Z,23.30
2022-08-18T04:58:04.781Z,23.30
2022-08-18T05:00:33.149Z,23.30
2022-08-18T05:03:01.585Z,23.30
2022-08-18T05:05:32.256Z,23.30
2022-08-18T05:08:01.147Z,23.30
2022-08-18T05:10:29.605Z,23.30
2022-08-18T05:12:59.442Z,23.30
2022-08-18T05:15:52.661Z,23.30
2022-08-18T05:18:24.799Z,23.30
2022-08-18T05:20:56.526Z,23.30
2022-08-18T05:23:25.784Z,23.20
2022-08-18T05:25:59.369Z,23.20
2022-08-18T05:28:29.571Z,23.20
2022-08-18T05:31:00.650Z,23.20
2022-08-18T05:33:29.093Z,23.30
2022-08-18T05:36:04.934Z,23.20
2022-08-18T05:38:46.462Z,23.20
2022-08-18T05:41:21.026Z,23.20
2022-08-18T05:43:58.505Z,23.30
2022-08-18T05:46:35.796Z,23.20
2022-08-18T05:49:04.107Z,23.20
2022-08-18T05:51:35.711Z,23.20
2022-08-18T05:54:23.565Z,23.30
2022-08-18T05:56:53.052Z,23.20
2022-08-18T05:59:26.301Z,23.20
2022-08-18T06:02:01.927Z,23.20
2022-08-18T06:04:44.666Z,23.20
2022-08-18T06:07:33.356Z,23.20
2022-08-18T06:10:03.417Z,23.10
2022-08-18T06:12:37.629Z,23.10
2022-08-18T06:15:15.243Z,23.20
2022-08-18T06:18:22.712Z,23.10
2022-08-18T06:21:19.892Z,23.10
2022-08-18T06:23:57.827Z,23.10
2022-08-18T06:26:34.452Z,23.10
2022-08-18T06:29:14.792Z,23.10
2022-08-18T06:31:53.224Z,23.10
2022-08-18T06:34:32.618Z,23.10
2022-08-18T06:37:08.400Z,23.20
2022-08-18T06:39:45.344Z,23.10
2022-08-18T06:42:21.470Z,23.10
2022-08-18T06:44:54.504Z,23.10
2022-08-18T06:47:42.162Z,23.20
2022-08-18T06:50:20.797Z,23.10
2022-08-18T06:52:56.278Z,23.20
2022-08-18T06:55:34.190Z,23.20
2022-08-18T06:58:06.434Z,23.20
2022-08-18T07:00:36.648Z,23.20
2022-08-18T07:03:13.713Z,23.20
2022-08-18T07:06:01.589Z,23.20
2022-08-18T07:08:35.670Z,23.20
2022-08-18T07:11:14.863Z,23.20
2022-08-18T07:13:44.959Z,23.30
2022-08-18T07:16:34.278Z,23.20
2022-08-18T07:19:10.372Z,23.20
2022-08-18T07:21:40.827Z,23.30
2022-08-18T07:24:24.933Z,23.30
2022-08-18T07:27:02.469Z,23.30
2022-08-18T07:29:32.538Z,23.30
2022-08-18T07:32:04.475Z,23.30
2022-08-18T07:34:40.803Z,23.30
2022-08-18T07:37:16.231Z,23.30
2022-08-18T07:39:50.484Z,23.20
2022-08-18T07:42:33.050Z,23.10
2022-08-18T07:45:24.650Z,23.10
2022-08-18T07:48:01.559Z,23.10
2022-08-18T07:50:58.441Z,23.10
2022-08-18T07:53:38.491Z,23.00
2022-08-18T07:56:17.960Z,23.10
2022-08-18T07:58:49.036Z,23.00
2022-08-18T08:01:27.755Z,23.10
2022-08-18T08:04:05.513Z,23.00
2022-08-18T08:07:00.581Z,23.10
2022-08-18T08:09:51.643Z,23.00
2022-08-18T08:12:32.201Z,23.00
2022-08-18T08:15:12.495Z,23.00
2022-08-18T08:17:49.355Z,23.00
2022-08-18T08:20:33.521Z,23.00
2022-08-18T08:23:17.298Z,23.00
2022-08-18T08:25:56.438Z,23.10
2022-08-18T08:28:36.152Z,23.10
2022-08-18T08:31:35.382Z,23.00
2022-08-18T08:34:10.705Z,23.00
2022-08-18T08:36:42.114Z,23.00
2022-08-18T08:39:17.245Z,23.00
2022-08-18T08:41:51.309Z,23.00
2022-08-18T08:44:25.183Z,23.00
2022-08-18T08:46:57.974Z,23.00
2022-08-18T08:49:34.614Z,23.00
2022-08-18T08:52:08.282Z,23.10
2022-08-18T08:54:45.475Z,23.10
2022-08-18T08:57:15.773Z,23.10
2022-08-18T08:59:47.134Z,23.10
2022-08-18T09:02:47.705Z,23.20
2022-08-18T09:05:21.506Z,23.20
2022-08-18T09:08:28.766Z,23.20
2022-08-18T09:11:27.721Z,23.30
2022-08-18T09:14:19.272Z,23.30
2022-08-18T09:17:00.319Z,23.30
2022-08-18T09:19:52.191Z,23.40
2022-08-18T09:22:32.417Z,23.40
2022-08-18T09:25:01.006Z,23.40
2022-08-18T09:28:09.315Z,23.40
2022-08-18T09:30:42.938Z,23.40
2022-08-18T09:33:21.114Z,23.40
2022-08-18T09:36:08.977Z,23.40
2022-08-18T09:39:07.475Z,23.40
2022-08-18T09:41:45.704Z,23.50
2022-08-18T09:45:02.032Z,23.50
2022-08-18T09:47:59.432Z,23.50
2022-08-18T09:50:38.870Z,23.50
2022-08-18T09:53:34.049Z,23.50
2022-08-18T09:59:02.093Z,23.60
2022-08-18T10:01:52.088Z,23.60
2022-08-18T10:04:33.312Z,23.60
2022-08-18T10:07:43.261Z,23.60
2022-08-18T10:11:01.149Z,23.60
2022-08-18T10:13:25.474Z,23.60
2022-08-18T10:16:10.896Z,23.60
2022-08-18T10:19:08.029Z,23.70
2022-08-18T10:22:06.337Z,23.70
2022-08-18T10:24:38.480Z,23.70
2022-08-18T10:27:13.085Z,23.70
2022-08-18T10:29:51.644Z,23.70
2022-08-18T10:32:39.971Z,23.70
2022-08-18T10:35:52.512Z,23.80
2022-08-18T10:38:49.407Z,23.80
2022-08-18T10:41:27.181Z,23.80
2022-08-18T10:44:01.040Z,23.90
2022-08-18T10:46:36.964Z,23.90
2022-08-18T10:49:21.483Z,23.90
2022-08-18T10:52:09.885Z,23.90
2022-08-18T10:55:10.356Z,23.90
2022-08-18T10:58:01.753Z,23.90
2022-08-18T11:00:44.954Z,24.00
2022-08-18T11:03:52.218Z,24.00
2022-08-18T11:06:21.908Z,24.00
2022-08-18T11:08:55.038Z,24.10
2022-08-18T11:11:38.021Z,24.00
2022-08-18T11:14:29.394Z,24.00
2022-08-18T11:17:07.656Z,24.10
2022-08-18T11:19:42.110Z,24.10
2022-08-18T11:22:32.583Z,24.10
2022-08-18T11:25:03.086Z,24.10
2022-08-18T11:27:36.485Z,24.10
2022-08-18T11:30:08.153Z,24.10
2022-08-18T11:32:52.206Z,24.20
2022-08-18T11:35:27.494Z,24.20
2022-08-18T11:37:59.908Z,24.30
2022-08-18T11:43:40.752Z,24.30
2022-08-18T11:49:17.548Z,24.40
2022-08-18T11:52:02.964Z,24.50
2022-08-18T11:54:50.560Z,24.50
2022-08-18T11:57:46.729Z,24.50
2022-08-18T12:00:44.306Z,24.60
2022-08-18T12:03:21.898Z,24.60
2022-08-18T12:05:56.356Z,24.60
2022-08-18T12:08:56.457Z,24.60
2022-08-18T12:11:27.114Z,24.60
2022-08-18T12:14:29.753Z,24.70
2022-08-18T12:16:54.113Z,24.70
2022-08-18T12:19:24.219Z,24.70
2022-08-18T12:21:57.900Z,24.70
2022-08-18T12:24:36.602Z,24.70
2022-08-18T12:27:20.939Z,24.70
2022-08-18T12:29:51.724Z,24.70
2022-08-18T12:32:46.833Z,24.70
2022-08-18T12:35:12.958Z,24.70
2022-08-18T12:38:03.622Z,24.70
2022-08-18T12:40:33.277Z,24.80
2022-08-18T12:43:01.763Z,24.70
2022-08-18T12:45:31.164Z,24.80
2022-08-18T12:48:04.358Z,24.80
2022-08-18T12:50:37.834Z,24.80
2022-08-18T12:53:12.489Z,24.80
2022-08-18T12:55:45.481Z,24.80
2022-08-18T12:58:14.213Z,24.80
2022-08-18T13:00:43.743Z,24.80
2022-08-18T13:03:13.411Z,24.80
2022-08-18T13:05:41.803Z,24.80
2022-08-18T13:08:27.586Z,24.90
2022-08-18T13:11:00.368Z,24.90
2022-08-18T13:13:55.042Z,24.90
2022-08-18T13:16:38.724Z,25.00
2022-08-18T13:19:15.984Z,24.90
2022-08-18T13:21:45.335Z,25.00
2022-08-18T13:24:14.117Z,25.00
2022-08-18T13:26:46.825Z,25.00
2022-08-18T13:29:18.433Z,25.00
2022-08-18T13:31:55.525Z,25.00
2022-08-18T13:34:29.865Z,25.10
2022-08-18T13:36:58.954Z,25.10
2022-08-18T13:39:33.893Z,25.10
2022-08-18T13:42:21.689Z,25.10
2022-08-18T13:44:55.004Z,25.10
2022-08-18T13:47:27.875Z,25.10
2022-08-18T13:49:59.940Z,25.10
2022-08-18T13:52:35.608Z,25.10
2022-08-18T13:55:12.015Z,25.20
2022-08-18T13:57:49.808Z,25.10
2022-08-18T14:00:29.985Z,25.10
2022-08-18T14:03:03.189Z,25.10
2022-08-18T14:05:36.520Z,25.10
2022-08-18T14:08:19.817Z,25.10
2022-08-18T14:10:53.202Z,25.10
2022-08-18T14:13:24.624Z,25.20
2022-08-18T14:15:55.946Z,25.20
2022-08-18T14:18:29.240Z,25.20
2022-08-18T14:21:24.329Z,25.30
2022-08-18T14:24:10.502Z,25.30
2022-08-18T14:26:50.473Z,25.40
2022-08-18T14:29:45.748Z,25.40
2022-08-18T14:32:09.335Z,25.50
2022-08-18T14:34:50.983Z,25.50
2022-08-18T14:37:26.396Z,25.50
2022-08-18T14:39:54.975Z,25.60
2022-08-18T14:42:41.253Z,25.60
2022-08-18T14:45:17.914Z,25.70
2022-08-18T14:47:56.822Z,25.70
2022-08-18T14:50:26.820Z,25.70
2022-08-18T14:52:56.580Z,25.80
2022-08-18T14:55:27.619Z,25.80
2022-08-18T14:57:59.292Z,25.80
2022-08-18T15:00:28.815Z,25.90
2022-08-18T15:02:59.684Z,25.90
2022-08-18T15:05:32.200Z,25.90
2022-08-18T15:08:05.257Z,26.00
2022-08-18T15:10:34.484Z,25.90
2022-08-18T15:13:03.940Z,26.00
2022-08-18T15:15:50.635Z,26.00
2022-08-18T15:18:22.665Z,26.00
2022-08-18T15:21:10.464Z,26.00
2022-08-18T15:24:19.965Z,26.00
2022-08-18T15:26:51.663Z,26.00
2022-08-18T15:29:22.770Z,26.00
2022-08-18T15:32:05.197Z,26.00
2022-08-18T15:34:47.011Z,26.00
2022-08-18T15:37:20.288Z,26.00
2022-08-18T15:40:05.447Z,26.00
2022-08-18T15:42:34.005Z,26.00
2022-08-18T15:45:12.009Z,26.00
2022-08-18T15:47:42.590Z,26.00
2022-08-18T15:50:25.175Z,26.00
2022-08-18T15:52:57.953Z,26.00
2022-08-18T15:55:32.982Z,26.00
2022-08-18T15:58:10.714Z,25.90
2022-08-18T16:00:42.638Z,25.90
2022-08-18T16:03:14.628Z,25.90
2022-08-18T16:05:51.582Z,25.90
2022-08-18T16:08:23.583Z,25.90
2022-08-18T16:10:54.759Z,25.80
2022-08-18T16:13:57.614Z,25.80
2022-08-18T16:16:40.289Z,25.80
2022-08-18T16:19:08.891Z,25.80
2022-08-18T16:21:40.016Z,25.70
2022-08-18T16:24:09.422Z,25.70
2022-08-18T16:26:39.274Z,25.70
2022-08-18T16:29:07.717Z,25.70
2022-08-18T16:31:36.417Z,25.70
2022-08-18T16:34:05.909Z,25.70
2022-08-18T16:36:34.887Z,25.70
2022-08-18T16:39:03.246Z,25.70
2022-08-18T16:41:31.915Z,25.70
2022-08-18T16:44:02.134Z,25.70
2022-08-18T16:46:30.573Z,25.70
2022-08-18T16:48:59.884Z,25.80
2022-08-18T16:51:29.721Z,25.70
2022-08-18T16:53:59.541Z,25.80
2022-08-18T16:56:30.633Z,25.80
2022-08-18T16:59:17.013Z,25.90
2022-08-18T17:02:04.025Z,25.90
2022-08-18T17:04:34.762Z,25.90
2022-08-18T17:07:05.755Z,25.90
2022-08-18T17:09:35.782Z,26.00
2022-08-18T17:12:05.340Z,26.00
2022-08-18T17:14:34.418Z,26.00
2022-08-18T17:17:05.878Z,26.00
2022-08-18T17:19:36.049Z,26.00
2022-08-18T17:22:06.018Z,26.10
2022-08-18T17:24:34.684Z,26.10
2022-08-18T17:27:12.226Z,26.20
2022-08-18T17:30:04.682Z,26.20
2022-08-18T17:32:41.773Z,26.20
2022-08-18T17:35:15.005Z,26.20
2022-08-18T17:37:49.418Z,26.20
2022-08-18T17:40:22.418Z,26.20
2022-08-18T17:42:53.770Z,26.20
2022-08-18T17:45:22.926Z,26.20
2022-08-18T17:47:59.666Z,26.20
2022-08-18T17:50:51.687Z,26.20
2022-08-18T17:53:21.370Z,26.20
2022-08-18T17:55:53.686Z,26.20
2022-08-18T17:58:28.240Z,26.10
2022-08-18T18:00:58.982Z,26.10
2022-08-18T18:03:30.475Z,26.10
2022-08-18T18:08:55.515Z,26.00
2022-08-18T18:11:32.268Z,26.00
2022-08-18T18:14:02.276Z,26.00
2022-08-18T18:16:35.633Z,26.00
2022-08-18T18:19:07.977Z,26.00
2022-08-18T18:22:00.152Z,26.00
2022-08-18T18:24:33.210Z,26.00
2022-08-18T18:27:02.399Z,25.90
2022-08-18T18:29:38.141Z,25.90
2022-08-18T18:32:25.006Z,25.90
2022-08-18T18:35:10.943Z,25.90
2022-08-18T18:37:48.923Z,25.80
2022-08-18T18:40:25.121Z,25.80
2022-08-18T18:42:54.199Z,25.80
2022-08-18T18:45:27.706Z,25.70
2022-08-18T18:48:05.487Z,25.70
2022-08-18T18:50:52.970Z,25.70
2022-08-18T18:53:37.825Z,25.70
2022-08-18T18:56:17.962Z,25.70
2022-08-18T18:58:56.271Z,25.70
2022-08-18T19:01:33.839Z,25.70
2022-08-18T19:04:11.102Z,25.70
2022-08-18T19:06:49.290Z,25.60
2022-08-18T19:09:25.151Z,25.60
2022-08-18T19:12:03.834Z,25.60
2022-08-18T19:14:36.881Z,25.60
2022-08-18T19:17:14.485Z,25.60
2022-08-18T19:19:45.879Z,25.60
2022-08-18T19:22:22.090Z,25.60
2022-08-18T19:25:01.749Z,25.50
2022-08-18T19:27:36.515Z,25.50
2022-08-18T19:30:08.991Z,25.50
2022-08-18T19:32:44.172Z,25.50
2022-08-18T19:35:23.083Z,25.50
2022-08-18T19:38:18.692Z,25.50
2022-08-18T19:40:51.967Z,25.50
2022-08-18T19:43:27.472Z,25.50
2022-08-18T19:46:05.599Z,25.50
2022-08-18T19:48:44.233Z,25.50
2022-08-18T19:51:21.633Z,25.50
2022-08-18T19:54:10.144Z,25.40
2022-08-18T19:56:55.362Z,25.40
2022-08-18T19:59:45.189Z,25.40
2022-08-18T20:02:26.396Z,25.40
2022-08-18T20:05:09.352Z,25.40
2022-08-18T20:07:56.201Z,25.40
2022-08-18T20:10:50.287Z,25.40
2022-08-18T20:13:33.088Z,25.30
2022-08-18T20:16:14.444Z,25.30
2022-08-18T20:18:45.246Z,25.30
2022-08-18T20:21:39.838Z,25.30
2022-08-18T20:24:36.943Z,25.20
2022-08-18T20:27:38.994Z,25.20
2022-08-18T20:30:33.207Z,25.20
2022-08-18T20:33:20.594Z,25.10
2022-08-18T20:35:54.630Z,25.10
2022-08-18T20:38:34.213Z,25.10
2022-08-18T20:41:31.366Z,25.10
2022-08-18T20:44:14.675Z,25.10
2022-08-18T20:47:10.737Z,25.10
2022-08-18T20:49:52.779Z,25.00
2022-08-18T20:52:35.887Z,25.00
2022-08-18T20:55:17.135Z,25.20
2022-08-18T20:57:45.575Z,25.00
2022-08-18T21:00:22.666Z,25.00
2022-08-18T21:02:58.990Z,24.90
2022-08-18T21:05:29.628Z,24.90
2022-08-18T21:08:17.937Z,24.90
2022-08-18T21:10:51.517Z,24.90
2022-08-18T21:13:31.139Z,24.90
2022-08-18T21:16:01.308Z,24.80
2022-08-18T21:18:29.881Z,24.90
2022-08-18T21:21:00.374Z,24.80
2022-08-18T21:23:31.758Z,24.80
2022-08-18T21:26:06.389Z,24.80
2022-08-18T21:28:38.854Z,24.80
2022-08-18T21:31:41.795Z,24.70
2022-08-18T21:34:18.404Z,24.80
2022-08-18T21:36:53.539Z,24.80
2022-08-18T21:39:22.754Z,24.80
2022-08-18T21:41:54.399Z,24.70
2022-08-18T21:44:26.519Z,24.70
2022-08-18T21:47:07.796Z,24.70
2022-08-18T21:49:36.036Z,24.70
2022-08-18T21:52:04.681Z,24.70
2022-08-18T21:54:34.769Z,24.70
2022-08-18T21:57:20.726Z,24.70
2022-08-18T22:00:17.258Z,24.70
2022-08-18T22:02:51.844Z,24.70
2022-08-18T22:05:30.301Z,24.70
2022-08-18T22:08:21.716Z,24.60
2022-08-18T22:11:59.515Z,24.60
2022-08-18T22:14:18.724Z,24.60
2022-08-18T22:16:48.239Z,24.50
2022-08-18T22:19:27.679Z,24.50
2022-08-18T22:22:22.294Z,24.50
2022-08-18T22:24:54.185Z,24.50
2022-08-18T22:27:25.495Z,24.40
2022-08-18T22:30:01.653Z,24.40
2022-08-18T22:32:29.917Z,24.40
2022-08-18T22:34:59.516Z,24.30
2022-08-18T22:37:32.582Z,24.30
2022-08-18T22:40:03.415Z,24.40
2022-08-18T22:42:34.203Z,24.30
2022-08-18T22:45:05.457Z,24.30
2022-08-18T22:47:43.296Z,24.30
2022-08-18T22:50:15.314Z,24.30
2022-08-18T22:52:47.572Z,24.30
2022-08-18T22:55:21.746Z,24.30
2022-08-18T22:57:55.666Z,24.30
2022-08-18T23:00:26.258Z,24.30
2022-08-18T23:02:55.036Z,24.30
2022-08-18T23:05:26.813Z,24.20
2022-08-18T23:07:55.533Z,24.30
2022-08-18T23:10:23.916Z,24.20
2022-08-18T23:12:52.511Z,24.20
2022-08-18T23:15:22.857Z,24.20
2022-08-18T23:17:51.162Z,24.20
2022-08-18T23:20:20.054Z,24.20
2022-08-18T23:22:49.835Z,24.10
2022-08-18T23:25:18.300Z,24.10
2022-08-18T23:27:46.828Z,24.10
2022-08-18T23:30:15.319Z,24.10
2022-08-18T23:32:44.135Z,24.10
2022-08-18T23:35:12.757Z,24.10
2022-08-18T23:37:41.559Z,24.10
2022-08-18T23:40:14.895Z,24.00
2022-08-18T23:42:43.116Z,24.00
2022-08-18T23:45:12.053Z,24.00
2022-08-18T23:47:41.337Z,24.00
2022-08-18T23:50:10.761Z,23.90
2022-08-18T23:52:39.490Z,23.90
2022-08-18T23:55:08.984Z,23.90
2022-08-18T23:57:38.867Z,23.90
